Monclova, Ohio
Current Conditions -  °F | °C
As of 4:52 AM on Saturday 22 Nov 2014 (Local Time) from KTOL Reporting Station
Overcast Overcast  
Wind Chill: 19°   Ceiling: 2900
Heat Index: 25°   Visibility: 10mi
Dew Point: 16°   Wind: 5mph
Humidity: 69%   Direction: 190°S
Pressure: 30.21"   Gusts: NA
Location:  41.56°N, 83.73°W
Report Text: KTOL 220952Z 19004KT 10SM OVC029 M04/M09 A3021 RMK AO2 SLP240 T10391089
Loading
Personal Weather Stations






























Interactive Weather Map New forecast layout! Learn more

10-Day Weather Forecast

Advertisements
Track Severe Weather on mobile